createdAt,value
2022-11-15T00:01:27.775Z,65.56
2022-11-15T00:04:12.620Z,64.85
2022-11-15T00:06:57.827Z,65.04
2022-11-15T00:09:46.259Z,65.03
2022-11-15T00:12:31.353Z,64.66
2022-11-15T00:15:18.635Z,65.11
2022-11-15T00:18:04.472Z,65.21
2022-11-15T00:20:49.557Z,64.79
2022-11-15T00:23:34.978Z,64.90
2022-11-15T00:26:20.057Z,64.54
2022-11-15T00:29:05.242Z,64.37
2022-11-15T00:31:49.991Z,64.79
2022-11-15T00:34:34.919Z,65.10
2022-11-15T00:37:19.786Z,65.20
2022-11-15T00:40:04.842Z,64.79
2022-11-15T00:42:50.041Z,64.86
2022-11-15T00:45:35.184Z,65.00
2022-11-15T00:48:20.453Z,65.21
2022-11-15T00:51:05.791Z,65.35
2022-11-15T00:53:51.437Z,65.06
2022-11-15T00:56:39.327Z,64.59
2022-11-15T00:59:24.223Z,64.76
2022-11-15T01:02:09.140Z,65.27
2022-11-15T01:04:54.501Z,65.63
2022-11-15T01:07:39.839Z,65.40
2022-11-15T01:10:27.607Z,65.51
2022-11-15T01:13:12.476Z,65.38
2022-11-15T01:15:57.824Z,65.00
2022-11-15T01:18:42.726Z,66.06
2022-11-15T01:21:30.381Z,66.05
2022-11-15T01:24:15.418Z,65.66
2022-11-15T01:27:00.632Z,65.73
2022-11-15T01:29:48.425Z,65.10
2022-11-15T01:32:33.270Z,64.72
2022-11-15T01:35:18.091Z,64.62
2022-11-15T01:38:02.962Z,64.46
2022-11-15T01:40:48.169Z,64.61
2022-11-15T01:43:34.785Z,64.33
2022-11-15T01:46:22.655Z,63.93
2022-11-15T01:49:12.484Z,64.12
2022-11-15T01:51:57.914Z,64.58
2022-11-15T01:54:43.321Z,64.32
2022-11-15T01:57:31.028Z,64.71
2022-11-15T02:00:16.861Z,64.66
2022-11-15T02:03:02.286Z,64.22
2022-11-15T02:05:47.164Z,64.07
2022-11-15T02:08:32.011Z,63.75
2022-11-15T02:11:16.767Z,63.71
2022-11-15T02:14:01.848Z,63.83
2022-11-15T02:16:56.708Z,63.70
2022-11-15T02:19:44.446Z,63.42
2022-11-15T02:22:45.756Z,63.57
2022-11-15T02:25:42.825Z,63.71
2022-11-15T02:28:43.079Z,64.44
2022-11-15T02:31:33.941Z,64.33
2022-11-15T02:34:22.908Z,64.40
2022-11-15T02:37:26.807Z,64.41
2022-11-15T02:40:26.843Z,64.35
2022-11-15T02:43:31.819Z,64.64
2022-11-15T02:46:23.176Z,64.54
2022-11-15T02:49:08.433Z,64.90
2022-11-15T02:51:53.997Z,65.26
2022-11-15T02:54:39.286Z,64.98
2022-11-15T02:57:34.788Z,65.09
2022-11-15T03:00:20.139Z,65.31
2022-11-15T03:03:05.028Z,64.98
2022-11-15T03:05:49.849Z,65.41
2022-11-15T03:08:40.931Z,65.02
2022-11-15T03:11:26.112Z,64.99
2022-11-15T03:14:14.946Z,64.84
2022-11-15T03:17:09.152Z,64.87
2022-11-15T03:19:54.873Z,64.99
2022-11-15T03:22:41.368Z,65.03
2022-11-15T03:25:27.926Z,65.10
2022-11-15T03:28:13.708Z,65.15
2022-11-15T03:30:58.994Z,65.14
2022-11-15T03:33:44.209Z,64.92
2022-11-15T03:36:29.452Z,64.58
2022-11-15T03:39:19.288Z,64.62
2022-11-15T03:42:06.093Z,64.86
2022-11-15T03:44:51.022Z,64.77
2022-11-15T03:47:37.236Z,64.77
2022-11-15T03:50:23.031Z,65.03
2022-11-15T03:53:08.291Z,65.15
2022-11-15T03:55:53.490Z,65.23
2022-11-15T03:58:41.451Z,65.32
2022-11-15T04:01:26.553Z,65.24
2022-11-15T04:04:11.722Z,65.37
2022-11-15T04:06:56.716Z,65.64
2022-11-15T04:10:00.719Z,65.91
2022-11-15T04:12:48.520Z,65.90
2022-11-15T04:15:33.516Z,66.02
2022-11-15T04:18:23.648Z,65.98
2022-11-15T04:21:27.744Z,65.97
2022-11-15T04:24:15.827Z,65.56
2022-11-15T04:27:03.167Z,65.88
2022-11-15T04:29:48.119Z,65.32
2022-11-15T04:32:33.162Z,65.76
2022-11-15T04:35:17.949Z,65.60
2022-11-15T04:38:05.903Z,65.81
2022-11-15T04:40:50.722Z,66.08
2022-11-15T04:43:36.257Z,66.10
2022-11-15T04:46:21.965Z,66.11
2022-11-15T04:49:06.995Z,65.99
2022-11-15T04:51:52.046Z,65.69
2022-11-15T04:54:39.293Z,65.88
2022-11-15T04:57:24.357Z,65.95
2022-11-15T05:00:10.928Z,65.90
2022-11-15T05:03:15.413Z,66.36
2022-11-15T05:06:00.471Z,66.26
2022-11-15T05:08:45.503Z,66.47
2022-11-15T05:11:30.318Z,66.39
2022-11-15T05:14:15.293Z,66.31
2022-11-15T05:17:00.346Z,66.17
2022-11-15T05:19:45.716Z,66.06
2022-11-15T05:22:33.048Z,66.31
2022-11-15T05:25:17.869Z,66.08
2022-11-15T05:28:03.351Z,66.42
2022-11-15T05:30:53.182Z,66.21
2022-11-15T05:33:41.671Z,66.43
2022-11-15T05:36:27.136Z,66.97
2022-11-15T05:39:12.296Z,66.77
2022-11-15T05:42:05.237Z,66.59
2022-11-15T05:44:52.930Z,66.12
2022-11-15T05:47:38.153Z,66.25
2022-11-15T05:50:23.218Z,65.95
2022-11-15T05:53:08.814Z,65.87
2022-11-15T05:55:54.255Z,65.83
2022-11-15T05:58:41.794Z,65.63
2022-11-15T06:01:26.968Z,65.58
2022-11-15T06:04:12.234Z,65.56
2022-11-15T06:06:59.243Z,65.65
2022-11-15T06:09:44.618Z,65.79
2022-11-15T06:12:29.335Z,65.46
2022-11-15T06:15:16.695Z,65.57
2022-11-15T06:18:03.996Z,65.66
2022-11-15T06:20:53.443Z,65.44
2022-11-15T06:23:40.889Z,65.55
2022-11-15T06:26:25.884Z,65.29
2022-11-15T06:29:11.380Z,65.45
2022-11-15T06:31:57.912Z,65.10
2022-11-15T06:34:43.259Z,64.86
2022-11-15T06:37:30.649Z,65.30
2022-11-15T06:40:15.817Z,65.07
2022-11-15T06:43:07.878Z,65.40
2022-11-15T06:45:53.227Z,65.59
2022-11-15T06:48:38.195Z,65.78
2022-11-15T06:51:25.863Z,65.58
2022-11-15T06:54:10.922Z,65.66
2022-11-15T06:56:56.181Z,65.67
2022-11-15T06:59:41.237Z,65.94
2022-11-15T07:02:26.191Z,65.87
2022-11-15T07:05:12.118Z,65.65
2022-11-15T07:07:59.701Z,65.63
2022-11-15T07:10:44.717Z,65.67
2022-11-15T07:13:30.841Z,65.44
2022-11-15T07:16:16.417Z,65.85
2022-11-15T07:19:03.718Z,65.76
2022-11-15T07:21:49.009Z,65.44
2022-11-15T07:24:36.373Z,65.24
2022-11-15T07:27:21.857Z,65.14
2022-11-15T07:30:07.421Z,65.19
2022-11-15T07:32:59.211Z,65.00
2022-11-15T07:35:44.197Z,64.68
2022-11-15T07:38:29.805Z,65.13
2022-11-15T07:41:14.691Z,65.11
2022-11-15T07:43:59.936Z,64.87
2022-11-15T07:46:45.470Z,65.13
2022-11-15T07:49:30.909Z,64.96
2022-11-15T07:52:16.405Z,65.24
2022-11-15T07:55:01.462Z,65.03
2022-11-15T07:57:46.529Z,64.88
2022-11-15T08:00:31.675Z,64.52
2022-11-15T08:03:17.383Z,64.24
2022-11-15T08:06:02.371Z,64.99
2022-11-15T08:08:48.119Z,65.09
2022-11-15T08:11:33.700Z,65.30
2022-11-15T08:14:18.894Z,64.82
2022-11-15T08:17:07.070Z,64.51
2022-11-15T08:19:52.288Z,63.81
2022-11-15T08:22:37.711Z,63.16
2022-11-15T08:25:22.923Z,63.38
2022-11-15T08:28:08.318Z,63.46
2022-11-15T08:30:53.623Z,63.39
2022-11-15T08:33:38.811Z,63.95
2022-11-15T08:36:23.827Z,63.77
2022-11-15T08:39:11.347Z,64.06
2022-11-15T08:41:56.481Z,64.56
2022-11-15T08:44:41.601Z,64.75
2022-11-15T08:47:29.171Z,65.13
2022-11-15T08:50:14.239Z,65.16
2022-11-15T08:53:01.085Z,65.63
2022-11-15T08:55:46.237Z,65.77
2022-11-15T08:58:31.948Z,65.53
2022-11-15T09:01:21.048Z,65.37
2022-11-15T09:04:08.848Z,65.63
2022-11-15T09:06:53.950Z,65.65
2022-11-15T09:09:39.790Z,65.40
2022-11-15T09:12:24.816Z,65.16
2022-11-15T09:15:10.170Z,65.61
2022-11-15T09:17:55.235Z,65.81
2022-11-15T09:20:42.935Z,65.71
2022-11-15T09:23:27.869Z,64.81
2022-11-15T09:26:13.734Z,65.60
2022-11-15T09:29:02.349Z,65.42
2022-11-15T09:31:47.502Z,64.43
2022-11-15T09:34:32.972Z,64.93
2022-11-15T09:37:20.364Z,64.37
2022-11-15T09:40:05.528Z,64.68
2022-11-15T09:42:55.934Z,64.34
2022-11-15T09:45:44.100Z,64.29
2022-11-15T09:48:30.769Z,64.32
2022-11-15T09:51:20.205Z,64.45
2022-11-15T09:54:37.586Z,64.61
2022-11-15T09:56:41.395Z,64.35
2022-11-15T09:59:26.209Z,64.40
2022-11-15T10:02:11.715Z,64.41
2022-11-15T10:04:41.323Z,64.14
2022-11-15T10:07:26.310Z,64.45
2022-11-15T10:09:58.332Z,64.53
2022-11-15T10:12:27.037Z,64.51
2022-11-15T10:15:10.305Z,64.11
2022-11-15T10:17:55.605Z,64.96
2022-11-15T10:20:23.077Z,64.85
2022-11-15T10:22:51.865Z,64.81
2022-11-15T10:25:19.934Z,64.99
2022-11-15T10:27:52.668Z,65.00
2022-11-15T10:30:21.750Z,64.66
2022-11-15T10:32:51.026Z,64.63
2022-11-15T10:35:35.727Z,64.65
2022-11-15T10:38:06.591Z,64.63
2022-11-15T10:40:35.724Z,64.37
2022-11-15T10:43:20.805Z,64.22
2022-11-15T10:45:47.536Z,64.74
2022-11-15T10:48:14.033Z,64.78
2022-11-15T10:50:43.471Z,65.10
2022-11-15T10:53:33.486Z,64.99
2022-11-15T10:56:04.272Z,64.70
2022-11-15T10:58:39.315Z,64.63
2022-11-15T11:01:16.473Z,64.67
2022-11-15T11:03:46.122Z,64.41
2022-11-15T11:06:16.906Z,64.63
2022-11-15T11:08:54.591Z,64.33
2022-11-15T11:11:21.114Z,63.98
2022-11-15T11:13:50.343Z,63.71
2022-11-15T11:16:28.313Z,63.49
2022-11-15T11:19:13.420Z,63.83
2022-11-15T11:21:42.763Z,63.32
2022-11-15T11:24:28.478Z,63.11
2022-11-15T11:27:01.129Z,63.46
2022-11-15T11:29:27.813Z,63.49
2022-11-15T11:32:15.639Z,63.53
2022-11-15T11:35:03.393Z,63.43
2022-11-15T11:37:35.285Z,63.36
2022-11-15T11:40:20.811Z,63.62
2022-11-15T11:42:47.396Z,63.42
2022-11-15T11:45:22.718Z,63.66
2022-11-15T11:47:52.614Z,63.72
2022-11-15T11:50:20.834Z,63.61
2022-11-15T11:52:47.371Z,63.84
2022-11-15T11:55:17.791Z,63.90
2022-11-15T11:57:49.765Z,64.18
2022-11-15T12:00:19.882Z,64.04
2022-11-15T12:03:06.813Z,64.25
2022-11-15T12:05:38.696Z,64.25
2022-11-15T12:08:18.001Z,64.25
2022-11-15T12:10:45.626Z,64.30
2022-11-15T12:13:13.179Z,64.06
2022-11-15T12:15:39.710Z,64.28
2022-11-15T12:18:10.645Z,64.09
2022-11-15T12:20:37.752Z,63.94
2022-11-15T12:23:12.240Z,64.19
2022-11-15T12:25:47.100Z,64.18
2022-11-15T12:28:19.097Z,64.11
2022-11-15T12:30:54.855Z,63.59
2022-11-15T12:33:30.653Z,63.63
2022-11-15T12:36:01.718Z,63.74
2022-11-15T12:39:03.960Z,63.76
2022-11-15T12:41:31.122Z,63.44
2022-11-15T12:44:00.184Z,62.83
2022-11-15T12:46:29.789Z,62.92
2022-11-15T12:49:28.491Z,63.07
2022-11-15T12:52:00.477Z,63.42
2022-11-15T12:54:33.376Z,63.71
2022-11-15T12:57:02.275Z,64.03
2022-11-15T12:59:47.582Z,64.04
2022-11-15T13:02:18.478Z,64.04
2022-11-15T13:04:45.365Z,63.94
2022-11-15T13:07:31.901Z,64.07
2022-11-15T13:09:58.524Z,64.25
2022-11-15T13:12:28.097Z,64.60
2022-11-15T13:14:57.719Z,64.54
2022-11-15T13:17:31.890Z,64.47
2022-11-15T13:20:11.502Z,64.81
2022-11-15T13:22:53.533Z,64.47
2022-11-15T13:25:26.131Z,64.63
2022-11-15T13:27:52.841Z,64.72
2022-11-15T13:30:23.103Z,64.41
2022-11-15T13:32:49.844Z,64.99
2022-11-15T13:35:20.839Z,65.34
2022-11-15T13:37:47.422Z,65.19
2022-11-15T13:40:20.046Z,65.34
2022-11-15T13:42:48.644Z,65.42
2022-11-15T13:45:16.487Z,65.42
2022-11-15T13:47:43.075Z,65.65
2022-11-15T13:50:12.476Z,66.19
2022-11-15T13:52:40.536Z,65.98
2022-11-15T13:55:12.202Z,65.91
2022-11-15T13:57:45.599Z,65.64
2022-11-15T14:00:28.502Z,65.66
2022-11-15T14:02:57.298Z,65.54
2022-11-15T14:05:25.280Z,65.31
2022-11-15T14:08:07.636Z,65.29
2022-11-15T14:10:41.030Z,65.21
2022-11-15T14:13:14.040Z,65.35
2022-11-15T14:15:40.909Z,65.48
2022-11-15T14:18:07.485Z,65.55
2022-11-15T14:20:40.203Z,65.42
2022-11-15T14:23:19.474Z,65.54
2022-11-15T14:25:55.567Z,65.34
2022-11-15T14:28:25.109Z,65.46
2022-11-15T14:30:55.688Z,65.38
2022-11-15T14:33:23.861Z,65.41
2022-11-15T14:35:50.912Z,65.05
2022-11-15T14:38:17.541Z,65.37
2022-11-15T14:40:46.661Z,65.82
2022-11-15T14:43:14.178Z,65.49
2022-11-15T14:45:43.375Z,65.74
2022-11-15T14:48:10.123Z,65.73
2022-11-15T14:50:39.726Z,65.76
2022-11-15T14:53:06.370Z,65.64
2022-11-15T14:55:37.202Z,65.58
2022-11-15T14:58:08.917Z,65.62
2022-11-15T15:00:39.469Z,65.66
2022-11-15T15:03:08.343Z,65.60
2022-11-15T15:05:35.903Z,65.97
2022-11-15T15:08:05.223Z,65.96
2022-11-15T15:10:41.412Z,65.93
2022-11-15T15:13:25.536Z,65.84
2022-11-15T15:15:52.565Z,66.18
2022-11-15T15:18:20.899Z,66.22
2022-11-15T15:20:48.954Z,66.56
2022-11-15T15:23:16.815Z,66.38
2022-11-15T15:25:44.598Z,66.77
2022-11-15T15:28:11.187Z,66.79
2022-11-15T15:30:37.722Z,66.83
2022-11-15T15:33:04.263Z,66.83
2022-11-15T15:35:33.163Z,66.70
2022-11-15T15:37:59.876Z,66.48
2022-11-15T15:40:29.641Z,66.45
2022-11-15T15:42:56.440Z,66.27
2022-11-15T15:45:23.269Z,66.35
2022-11-15T15:47:53.275Z,66.29
2022-11-15T15:50:22.894Z,66.36
2022-11-15T15:52:49.932Z,66.36
2022-11-15T15:55:16.673Z,66.36
2022-11-15T15:57:45.731Z,66.42
2022-11-15T16:00:12.608Z,66.60
2022-11-15T16:02:41.747Z,66.33
2022-11-15T16:05:08.763Z,66.17
2022-11-15T16:07:35.519Z,66.22
2022-11-15T16:10:03.828Z,66.46
2022-11-15T16:12:31.648Z,66.60
2022-11-15T16:14:58.325Z,66.75
2022-11-15T16:17:28.939Z,67.00
2022-11-15T16:19:58.009Z,66.96
2022-11-15T16:22:27.072Z,67.14
2022-11-15T16:24:56.273Z,67.40
2022-11-15T16:27:23.310Z,67.60
2022-11-15T16:29:50.014Z,67.53
2022-11-15T16:32:16.858Z,67.81
2022-11-15T16:34:48.510Z,68.00
2022-11-15T16:37:33.829Z,67.92
2022-11-15T16:40:02.559Z,67.80
2022-11-15T16:42:31.331Z,67.90
2022-11-15T16:45:00.554Z,67.90
2022-11-15T16:47:29.938Z,67.85
2022-11-15T16:49:56.488Z,68.08
2022-11-15T16:52:23.027Z,67.89
2022-11-15T16:54:49.749Z,67.73
2022-11-15T16:57:16.734Z,67.69
2022-11-15T16:59:43.580Z,67.57
2022-11-15T17:02:13.591Z,67.64
2022-11-15T17:04:45.497Z,67.69
2022-11-15T17:07:12.058Z,67.75
2022-11-15T17:09:41.236Z,68.14
2022-11-15T17:12:11.786Z,68.40
2022-11-15T17:14:39.275Z,68.35
2022-11-15T17:17:08.673Z,68.41
2022-11-15T17:19:35.272Z,68.44
2022-11-15T17:22:06.623Z,68.59
2022-11-15T17:24:35.478Z,68.72
2022-11-15T17:27:02.023Z,68.86
2022-11-15T17:29:28.588Z,69.09
2022-11-15T17:31:55.094Z,68.99
2022-11-15T17:34:22.003Z,69.32
2022-11-15T17:36:48.913Z,69.31
2022-11-15T17:39:19.620Z,69.48
2022-11-15T17:41:50.297Z,69.63
2022-11-15T17:44:21.378Z,70.02
2022-11-15T17:46:47.944Z,69.86
2022-11-15T17:49:14.442Z,69.87
2022-11-15T17:51:47.427Z,69.82
2022-11-15T17:54:16.616Z,69.66
2022-11-15T17:56:45.568Z,70.16
2022-11-15T17:59:18.639Z,70.15
2022-11-15T18:01:47.850Z,70.32
2022-11-15T18:04:16.517Z,70.32
2022-11-15T18:06:43.220Z,70.80
2022-11-15T18:09:09.736Z,71.39
2022-11-15T18:11:39.324Z,71.79
2022-11-15T18:14:07.489Z,71.71
2022-11-15T18:16:35.779Z,71.79
2022-11-15T18:19:02.581Z,72.29
2022-11-15T18:21:29.980Z,72.74
2022-11-15T18:23:58.640Z,73.31
2022-11-15T18:26:27.645Z,73.14
2022-11-15T18:28:57.746Z,73.41
2022-11-15T18:31:25.467Z,73.67
2022-11-15T18:33:52.121Z,73.54
2022-11-15T18:36:28.822Z,73.42
2022-11-15T18:39:02.361Z,72.66
2022-11-15T18:41:29.489Z,72.46
2022-11-15T18:43:58.540Z,72.17
2022-11-15T18:46:26.250Z,72.19
2022-11-15T18:48:53.120Z,72.17
2022-11-15T18:51:23.106Z,72.04
2022-11-15T18:53:55.837Z,71.88
2022-11-15T18:56:23.032Z,71.89
2022-11-15T18:58:54.342Z,71.81
2022-11-15T19:01:28.241Z,71.97
2022-11-15T19:03:56.303Z,71.89
2022-11-15T19:06:26.666Z,71.90
2022-11-15T19:08:56.451Z,72.18
2022-11-15T19:11:25.603Z,71.83
2022-11-15T19:13:56.516Z,71.82
2022-11-15T19:17:31.615Z,71.84
2022-11-15T19:21:05.844Z,71.52
2022-11-15T19:24:00.516Z,71.51
2022-11-15T19:26:27.456Z,71.42
2022-11-15T19:29:00.511Z,71.44
2022-11-15T19:31:28.106Z,71.37
2022-11-15T19:34:15.038Z,71.27
2022-11-15T19:36:44.500Z,71.14
2022-11-15T19:39:13.995Z,71.01
2022-11-15T19:41:42.330Z,71.13
2022-11-15T19:44:09.250Z,71.17
2022-11-15T19:46:38.342Z,71.30
2022-11-15T19:49:07.947Z,71.57
2022-11-15T19:51:34.719Z,71.33
2022-11-15T19:54:06.769Z,71.57
2022-11-15T19:56:34.419Z,71.57
2022-11-15T19:59:00.961Z,71.22
2022-11-15T20:01:31.756Z,71.20
2022-11-15T20:04:02.281Z,70.98
2022-11-15T20:06:36.015Z,70.76
2022-11-15T20:09:07.566Z,70.87
2022-11-15T20:11:39.465Z,71.02
2022-11-15T20:14:09.724Z,70.76
2022-11-15T20:16:38.738Z,70.68
2022-11-15T20:19:08.550Z,70.60
2022-11-15T20:21:39.901Z,70.40
2022-11-15T20:24:06.844Z,70.38
2022-11-15T20:26:33.555Z,70.22
2022-11-15T20:29:04.130Z,70.21
2022-11-15T20:31:33.155Z,70.26
2022-11-15T20:34:01.841Z,70.04
2022-11-15T20:36:28.654Z,70.00
2022-11-15T20:38:59.264Z,69.91
2022-11-15T20:41:26.545Z,69.85
2022-11-15T20:43:53.231Z,69.82
2022-11-15T20:49:06.484Z,69.88
2022-11-15T20:51:36.492Z,69.89
2022-11-15T20:54:06.290Z,69.81
2022-11-15T20:56:33.001Z,69.75
2022-11-15T20:58:59.468Z,70.04
2022-11-15T21:01:26.144Z,69.83
2022-11-15T21:03:53.505Z,69.84
2022-11-15T21:06:21.053Z,69.89
2022-11-15T21:09:06.905Z,70.01
2022-11-15T21:11:52.090Z,69.97
2022-11-15T21:14:18.707Z,69.98
2022-11-15T21:16:48.061Z,69.83
2022-11-15T21:19:14.631Z,69.82
2022-11-15T21:21:41.263Z,70.02
2022-11-15T21:24:08.501Z,70.13
2022-11-15T21:26:36.285Z,70.06
2022-11-15T21:29:02.996Z,69.80
2022-11-15T21:31:32.043Z,69.89
2022-11-15T21:34:02.181Z,70.13
2022-11-15T21:36:28.761Z,69.92
2022-11-15T21:38:55.387Z,69.78
2022-11-15T21:41:22.034Z,69.53
2022-11-15T21:43:49.221Z,69.65
2022-11-15T21:46:15.765Z,69.83
2022-11-15T21:48:45.297Z,69.84
2022-11-15T21:51:19.856Z,69.78
2022-11-15T21:53:46.524Z,69.61
2022-11-15T21:56:13.086Z,69.66
2022-11-15T21:58:39.780Z,69.74
2022-11-15T22:01:25.668Z,69.74
2022-11-15T22:03:52.287Z,69.92
2022-11-15T22:06:18.795Z,69.71
2022-11-15T22:08:48.223Z,69.70
2022-11-15T22:11:14.918Z,69.71
2022-11-15T22:13:41.611Z,69.63
2022-11-15T22:16:11.216Z,69.63
2022-11-15T22:18:40.163Z,69.54
2022-11-15T22:21:10.072Z,69.71
2022-11-15T22:23:37.293Z,69.78
2022-11-15T22:26:06.717Z,69.81
2022-11-15T22:28:36.643Z,69.71
2022-11-15T22:31:03.708Z,69.52
2022-11-15T22:33:31.379Z,69.41
2022-11-15T22:35:58.203Z,69.44
2022-11-15T22:38:25.098Z,69.25
2022-11-15T22:40:54.281Z,69.38
2022-11-15T22:43:22.378Z,69.49
2022-11-15T22:45:51.869Z,69.39
2022-11-15T22:48:21.891Z,69.38
2022-11-15T22:50:48.415Z,69.17
2022-11-15T22:53:14.983Z,69.24
2022-11-15T22:55:41.527Z,69.53
2022-11-15T22:58:10.573Z,69.58
2022-11-15T23:00:37.617Z,69.69
2022-11-15T23:03:06.674Z,69.66
2022-11-15T23:05:35.544Z,69.64
2022-11-15T23:08:02.224Z,69.55
2022-11-15T23:10:47.365Z,69.57
2022-11-15T23:13:16.919Z,69.52
2022-11-15T23:16:02.531Z,69.58
2022-11-15T23:18:29.126Z,69.67
2022-11-15T23:20:55.645Z,69.63
2022-11-15T23:23:22.169Z,69.81
2022-11-15T23:25:48.754Z,69.70
2022-11-15T23:28:15.397Z,69.52
2022-11-15T23:31:00.400Z,69.57
2022-11-15T23:33:45.676Z,69.59
2022-11-15T23:36:12.206Z,69.81
2022-11-15T23:38:38.796Z,69.83
2022-11-15T23:41:08.050Z,69.87
2022-11-15T23:43:34.583Z,69.76
2022-11-15T23:46:01.941Z,69.89
2022-11-15T23:48:28.696Z,70.05
2022-11-15T23:50:55.221Z,70.05
2022-11-15T23:53:21.948Z,69.97
2022-11-15T23:56:02.016Z,69.91
2022-11-15T23:58:32.037Z,69.93
